Time;durP1;ratioP1;P1;durP2;ratioP2;P2;SDS_P1;SDS_P2;PMS_P1;PMS_P2;Temp;Humidity;BMP_temperature;BMP_pressure;BME280_temperature;BME280_humidity;BME280_pressure;Samples;Min_cycle;Max_cycle;Signal;HPM_P1;HPM_P2
2023/01/04 00:01:38;;;;;;;;;;;12.40;99.90;;;;;;5093364;28;19908;-79
2023/01/04 00:04:03;;;;;;;;;;;12.40;99.90;;;;;;5094349;28;19908;-80
2023/01/04 00:06:29;;;;;;;;;;;12.40;99.90;;;;;;5094262;28;20346;-79
2023/01/04 00:08:54;;;;;;;;;;;12.50;99.90;;;;;;5093480;28;19916;-79
2023/01/04 00:11:21;;;;;;;;;;;12.50;99.90;;;;;;5093756;28;19923;-80
2023/01/04 00:13:47;;;;;;;;;;;12.50;99.90;;;;;;5093662;28;19928;-78
2023/01/04 00:16:17;;;;;;;;;;;12.60;99.90;;;;;;5094034;28;19952;-80
2023/01/04 00:18:43;;;;;;;;;;;12.60;99.90;;;;;;5092714;28;20283;-80
2023/01/04 00:21:11;;;;;;;;;;;12.50;99.90;;;;;;5093884;28;19908;-80
2023/01/04 00:23:40;;;;;;;;;;;12.50;99.90;;;;;;5093417;28;20367;-80
2023/01/04 00:26:07;;;;;;;;;;;12.50;99.90;;;;;;5092852;28;20441;-79
2023/01/04 00:28:33;;;;;;;;;;;12.50;99.90;;;;;;5093300;28;20376;-82
2023/01/04 00:31:03;;;;;;;;;;;12.50;99.90;;;;;;5093551;28;19908;-79
2023/01/04 00:33:28;;;;;;;;;;;12.50;99.90;;;;;;5093559;28;19919;-79
2023/01/04 00:35:54;;;;;;;;;;;12.50;99.90;;;;;;5092993;28;19912;-80
2023/01/04 00:38:19;;;;;;;;;;;12.50;99.90;;;;;;5094069;28;20003;-79
2023/01/04 00:40:45;;;;;;;;;;;12.50;99.90;;;;;;5093462;28;20261;-79
2023/01/04 00:43:10;;;;;;;;;;;12.50;99.90;;;;;;5093389;28;19914;-79
2023/01/04 00:45:36;;;;;;;;;;;12.50;99.90;;;;;;5093272;28;19952;-79
2023/01/04 00:48:01;;;;;;;;;;;12.40;99.90;;;;;;5093698;28;19912;-77
2023/01/04 00:50:27;;;;;;;;;;;12.40;99.90;;;;;;5093418;28;20011;-78
2023/01/04 00:52:52;;;;;;;;;;;12.40;99.90;;;;;;5092671;28;19908;-80
2023/01/04 00:55:19;;;;;;;;;;;12.40;99.90;;;;;;5093504;28;20223;-80
2023/01/04 00:57:44;;;;;;;;;;;12.40;99.90;;;;;;5092345;28;19912;-78
2023/01/04 01:00:10;;;;;;;;;;;12.40;99.90;;;;;;5093205;28;19970;-79
2023/01/04 01:02:36;;;;;;;;;;;12.40;99.90;;;;;;5093805;28;19908;-79
2023/01/04 01:05:01;;;;;;;;;;;12.40;99.90;;;;;;5093451;28;19920;-78
2023/01/04 01:07:27;;;;;;;;;;;12.30;99.90;;;;;;5093856;28;19915;-79
2023/01/04 01:09:52;;;;;;;;;;;12.20;99.90;;;;;;5093299;28;19961;-79
2023/01/04 01:12:18;;;;;;;;;;;12.20;99.90;;;;;;5093500;28;19959;-80
2023/01/04 01:14:43;;;;;;;;;;;12.20;99.90;;;;;;5092868;28;20003;-79
2023/01/04 01:17:09;;;;;;;;;;;12.20;99.90;;;;;;5074702;28;20010;-79
2023/01/04 01:19:35;;;;;;;;;;;12.20;99.90;;;;;;5092713;28;19914;-85
2023/01/04 01:22:01;;;;;;;;;;;12.20;99.90;;;;;;5092697;28;19915;-79
2023/01/04 01:24:26;;;;;;;;;;;12.20;99.90;;;;;;5092870;28;19909;-78
2023/01/04 01:26:52;;;;;;;;;;;12.20;99.90;;;;;;5092488;28;20699;-79
2023/01/04 01:29:18;;;;;;;;;;;12.10;99.90;;;;;;5093057;28;19994;-79
2023/01/04 01:31:43;;;;;;;;;;;12.10;99.90;;;;;;5092895;28;19995;-79
2023/01/04 01:34:09;;;;;;;;;;;12.00;99.90;;;;;;5092909;28;19965;-79
2023/01/04 01:36:35;;;;;;;;;;;11.90;99.90;;;;;;5092611;28;19912;-83
2023/01/04 01:39:00;;;;;;;;;;;12.00;99.90;;;;;;5092278;28;19969;-79
2023/01/04 01:41:27;;;;;;;;;;;11.90;99.90;;;;;;5092612;28;20003;-79
2023/01/04 01:43:53;;;;;;;;;;;11.80;99.90;;;;;;5091895;28;20277;-79
2023/01/04 01:46:30;;;;;;;;;;;11.80;99.90;;;;;;5091758;28;19908;-79
2023/01/04 01:48:59;;;;;;;;;;;11.80;99.90;;;;;;5095286;28;20010;-79
2023/01/04 01:51:25;;;;;;;;;;;11.80;99.90;;;;;;5110347;28;19976;-79
2023/01/04 01:53:53;;;;;;;;;;;11.70;99.90;;;;;;5107977;28;19919;-80
2023/01/04 01:56:19;;;;;;;;;;;11.70;99.90;;;;;;5098637;28;19916;-78
2023/01/04 01:58:48;;;;;;;;;;;11.70;99.90;;;;;;5100501;28;19960;-79
2023/01/04 02:01:14;;;;;;;;;;;11.60;99.90;;;;;;5099612;28;19968;-78
2023/01/04 02:03:40;;;;;;;;;;;11.60;99.90;;;;;;5094397;28;20011;-78
2023/01/04 02:06:09;;;;;;;;;;;11.60;99.90;;;;;;5098566;28;19927;-79
2023/01/04 02:08:36;;;;;;;;;;;11.60;99.90;;;;;;5074173;28;19908;-79
2023/01/04 02:11:02;;;;;;;;;;;11.60;99.90;;;;;;5091722;28;19962;-79
2023/01/04 02:14:25;;;;;;;;;;;11.60;99.90;;;;;;5092517;28;19919;-78
2023/01/04 02:16:29;;;;;;;;;;;11.60;99.90;;;;;;5092010;28;20018;-79
2023/01/04 02:19:00;;;;;;;;;;;11.60;99.90;;;;;;5092496;28;20307;-79
2023/01/04 02:21:37;;;;;;;;;;;11.60;99.90;;;;;;5091723;28;19920;-78
2023/01/04 02:24:23;;;;;;;;;;;11.50;99.90;;;;;;5092083;28;19954;-79
2023/01/04 02:26:58;;;;;;;;;;;11.50;99.90;;;;;;5090867;28;20067;-79
2023/01/04 02:29:23;;;;;;;;;;;11.50;99.90;;;;;;5091576;28;20027;-79
2023/01/04 02:31:54;;;;;;;;;;;11.50;99.90;;;;;;5091161;28;19912;-79
2023/01/04 02:34:33;;;;;;;;;;;11.40;99.90;;;;;;5091785;28;19919;-79
2023/01/04 02:37:07;;;;;;;;;;;11.50;99.90;;;;;;5072809;28;19908;-78
2023/01/04 02:39:53;;;;;;;;;;;11.50;99.90;;;;;;5091290;28;19957;-79
2023/01/04 02:44:51;;;;;;;;;;;11.60;99.90;;;;;;5079690;28;19908;-79
2023/01/04 02:45:18;;;;;;;;;;;11.60;99.90;;;;;;5091035;28;19959;-79
2023/01/04 02:50:31;;;;;;;;;;;11.60;99.90;;;;;;5091226;28;19970;-78
2023/01/04 02:53:17;;;;;;;;;;;11.60;99.90;;;;;;5090901;28;20384;-79
2023/01/04 02:55:42;;;;;;;;;;;11.60;99.90;;;;;;5089889;28;19912;-79
2023/01/04 02:58:14;;;;;;;;;;;11.60;99.90;;;;;;5091096;28;19912;-79
2023/01/04 03:06:46;;;;;;;;;;;11.60;99.90;;;;;;5091280;28;19915;-79
2023/01/04 03:09:20;;;;;;;;;;;11.50;99.90;;;;;;5091166;28;20268;-78
2023/01/04 03:14:51;;;;;;;;;;;11.40;99.90;;;;;;5090664;28;20367;-84
2023/01/04 03:17:18;;;;;;;;;;;11.40;99.90;;;;;;5090779;28;19916;-78
2023/01/04 03:19:50;;;;;;;;;;;11.40;99.90;;;;;;5090941;28;20349;-80
2023/01/04 03:36:36;;;;;;;;;;;11.50;99.90;;;;;;5094422;28;19930;-79
2023/01/04 03:50:38;;;;;;;;;;;11.70;99.90;;;;;;5094553;28;19914;-79
2023/01/04 03:53:07;;;;;;;;;;;11.70;99.90;;;;;;5093752;28;20034;-79
2023/01/04 03:55:35;;;;;;;;;;;11.70;99.90;;;;;;5093977;28;19919;-79
2023/01/04 03:58:00;;;;;;;;;;;11.80;99.90;;;;;;5093415;28;19915;-80
2023/01/04 04:00:26;;;;;;;;;;;11.80;99.90;;;;;;5093935;28;20384;-79
2023/01/04 04:02:52;;;;;;;;;;;11.90;99.90;;;;;;5094658;28;20117;-80
2023/01/04 04:10:47;;;;;;;;;;;11.90;99.90;;;;;;5093810;28;19914;-81
2023/01/04 04:13:13;;;;;;;;;;;11.90;99.90;;;;;;5094307;28;19908;-79
2023/01/04 04:15:39;;;;;;;;;;;12.00;99.90;;;;;;5093699;28;19912;-79
2023/01/04 04:18:04;;;;;;;;;;;12.00;99.90;;;;;;5074733;28;20118;-79
2023/01/04 04:20:30;;;;;;;;;;;12.00;99.90;;;;;;5093366;28;19965;-79
2023/01/04 04:22:55;;;;;;;;;;;11.90;99.90;;;;;;5074412;28;19912;-79
2023/01/04 04:25:21;;;;;;;;;;;11.90;99.90;;;;;;5093442;28;19948;-80
2023/01/04 04:27:46;;;;;;;;;;;11.90;99.90;;;;;;5092656;28;20356;-83
2023/01/04 04:30:12;;;;;;;;;;;11.90;99.90;;;;;;5093822;28;19908;-79
2023/01/04 04:32:38;;;;;;;;;;;11.90;99.90;;;;;;5092779;28;19960;-78
2023/01/04 04:35:03;;;;;;;;;;;11.80;99.90;;;;;;5092103;28;19912;-79
2023/01/04 04:37:30;;;;;;;;;;;11.80;99.90;;;;;;5093519;28;19912;-79
2023/01/04 04:39:57;;;;;;;;;;;11.80;99.90;;;;;;5092884;28;19912;-79
2023/01/04 04:42:22;;;;;;;;;;;11.80;99.90;;;;;;5093309;28;19908;-79
2023/01/04 04:44:48;;;;;;;;;;;11.70;99.90;;;;;;5093012;28;19914;-85
2023/01/04 04:47:14;;;;;;;;;;;11.80;99.90;;;;;;5101492;28;19993;-79
2023/01/04 04:49:39;;;;;;;;;;;11.70;99.90;;;;;;5108055;28;19915;-78
2023/01/04 04:52:05;;;;;;;;;;;11.70;99.90;;;;;;5093386;28;19987;-79
2023/01/04 04:54:30;;;;;;;;;;;11.70;99.90;;;;;;5093261;28;19973;-79
2023/01/04 04:56:56;;;;;;;;;;;11.70;99.90;;;;;;5092875;28;20003;-79
2023/01/04 04:59:40;;;;;;;;;;;11.70;99.90;;;;;;5093421;28;19916;-79
2023/01/04 05:02:06;;;;;;;;;;;11.60;99.90;;;;;;5093054;28;19961;-79
2023/01/04 05:04:31;;;;;;;;;;;11.60;99.90;;;;;;5092903;28;19919;-79
2023/01/04 05:06:57;;;;;;;;;;;11.60;99.90;;;;;;5092355;28;20018;-79
2023/01/04 05:09:22;;;;;;;;;;;11.50;99.90;;;;;;5092833;28;19915;-79
2023/01/04 05:14:32;;;;;;;;;;;11.50;99.90;;;;;;5092337;28;19919;-78
2023/01/04 05:16:58;;;;;;;;;;;11.40;99.90;;;;;;5091943;28;20246;-79
2023/01/04 05:19:23;;;;;;;;;;;11.40;99.90;;;;;;5092737;28;19912;-79
2023/01/04 05:21:49;;;;;;;;;;;11.40;99.90;;;;;;5092145;28;20369;-83
2023/01/04 05:24:14;;;;;;;;;;;11.40;99.90;;;;;;5112388;28;19908;-78
2023/01/04 05:26:40;;;;;;;;;;;11.40;99.90;;;;;;5113014;28;19907;-78
2023/01/04 05:29:05;;;;;;;;;;;11.40;99.90;;;;;;5112163;28;20007;-78
2023/01/04 05:31:31;;;;;;;;;;;11.30;99.90;;;;;;5112594;28;19933;-78
2023/01/04 05:33:56;;;;;;;;;;;11.30;99.90;;;;;;5111571;28;19934;-79
2023/01/04 05:36:22;;;;;;;;;;;11.30;99.90;;;;;;5125772;28;19982;-78
2023/01/04 05:38:48;;;;;;;;;;;11.20;99.90;;;;;;5125753;28;19923;-79
2023/01/04 05:44:06;;;;;;;;;;;11.20;99.90;;;;;;5087703;28;19961;-78
2023/01/04 05:46:31;;;;;;;;;;;11.20;99.90;;;;;;5112922;28;19916;-78
2023/01/04 05:48:57;;;;;;;;;;;11.20;99.90;;;;;;5111964;28;19995;-78
2023/01/04 05:51:22;;;;;;;;;;;11.20;99.90;;;;;;5112081;28;19947;-77
2023/01/04 05:53:48;;;;;;;;;;;11.20;99.90;;;;;;5111978;28;20274;-77
2023/01/04 05:56:14;;;;;;;;;;;11.20;99.90;;;;;;5111653;28;19920;-77
2023/01/04 05:58:39;;;;;;;;;;;11.20;99.90;;;;;;5111819;28;19908;-77
2023/01/04 06:01:06;;;;;;;;;;;11.20;99.90;;;;;;5093065;28;19914;-78
2023/01/04 06:03:32;;;;;;;;;;;11.20;99.90;;;;;;5111978;28;20336;-78
2023/01/04 06:05:57;;;;;;;;;;;11.20;99.90;;;;;;5111719;28;19918;-79
2023/01/04 06:08:23;;;;;;;;;;;11.20;99.90;;;;;;5112193;28;20362;-79
2023/01/04 06:10:52;;;;;;;;;;;11.20;99.90;;;;;;5111539;28;19908;-78
2023/01/04 06:13:19;;;;;;;;;;;11.20;99.90;;;;;;5111454;28;19919;-78
2023/01/04 06:15:44;;;;;;;;;;;11.20;99.90;;;;;;5111550;28;20006;-78
2023/01/04 06:18:10;;;;;;;;;;;11.20;99.90;;;;;;5110870;28;20426;-78
2023/01/04 06:20:36;;;;;;;;;;;11.20;99.90;;;;;;5112177;28;19914;-78
2023/01/04 06:23:01;;;;;;;;;;;11.20;99.90;;;;;;5111216;28;19912;-79
2023/01/04 06:25:27;;;;;;;;;;;11.20;99.90;;;;;;5126369;28;19911;-78
2023/01/04 06:27:52;;;;;;;;;;;11.20;99.90;;;;;;5124998;28;19908;-78
2023/01/04 06:30:18;;;;;;;;;;;11.20;99.90;;;;;;5111588;28;19908;-78
2023/01/04 06:32:43;;;;;;;;;;;11.30;99.90;;;;;;5111996;28;20329;-79
2023/01/04 06:35:09;;;;;;;;;;;11.20;99.90;;;;;;5111198;28;19965;-79
2023/01/04 06:37:35;;;;;;;;;;;11.20;99.90;;;;;;5111818;28;20517;-78
2023/01/04 06:40:00;;;;;;;;;;;11.10;99.90;;;;;;5093183;28;19908;-78
2023/01/04 06:42:44;;;;;;;;;;;11.20;99.90;;;;;;5111775;28;19907;-78
2023/01/04 06:45:09;;;;;;;;;;;11.20;99.90;;;;;;5111476;28;20344;-78
2023/01/04 06:47:35;;;;;;;;;;;11.20;99.90;;;;;;5111641;28;19908;-78
2023/01/04 06:50:01;;;;;;;;;;;11.20;99.90;;;;;;5111707;28;20088;-78
2023/01/04 06:52:27;;;;;;;;;;;11.20;99.90;;;;;;5111566;28;19915;-79
2023/01/04 06:54:52;;;;;;;;;;;11.20;99.90;;;;;;5091952;28;20345;-78
2023/01/04 06:57:18;;;;;;;;;;;11.20;99.90;;;;;;5093621;28;19999;-78
2023/01/04 06:59:44;;;;;;;;;;;11.20;99.90;;;;;;5095972;28;20355;-79
2023/01/04 07:02:12;;;;;;;;;;;11.20;99.90;;;;;;5094973;28;19908;-78
2023/01/04 07:04:38;;;;;;;;;;;11.20;99.90;;;;;;5095760;28;19958;-78
2023/01/04 07:07:03;;;;;;;;;;;11.20;99.90;;;;;;5076642;28;20360;-78
2023/01/04 07:09:29;;;;;;;;;;;11.10;99.90;;;;;;5077340;28;19931;-78
2023/01/04 07:11:56;;;;;;;;;;;11.10;99.90;;;;;;5095490;28;19920;-78
2023/01/04 07:14:22;;;;;;;;;;;11.20;99.90;;;;;;5110258;28;19916;-78
2023/01/04 07:16:47;;;;;;;;;;;11.20;99.90;;;;;;5106526;28;19912;-78
2023/01/04 07:19:13;;;;;;;;;;;11.20;99.90;;;;;;5095642;28;19964;-78
2023/01/04 07:21:39;;;;;;;;;;;11.20;99.90;;;;;;5095531;28;20345;-78
2023/01/04 07:24:04;;;;;;;;;;;11.20;99.90;;;;;;5095270;28;19961;-78
2023/01/04 07:26:30;;;;;;;;;;;11.20;99.90;;;;;;5095507;28;19970;-77
2023/01/04 07:29:13;;;;;;;;;;;11.10;99.90;;;;;;5096106;28;19912;-77
2023/01/04 07:31:39;;;;;;;;;;;11.20;99.90;;;;;;5095210;28;20304;-78
2023/01/04 07:34:05;;;;;;;;;;;11.10;99.90;;;;;;5095638;28;19927;-76
2023/01/04 07:36:30;;;;;;;;;;;11.10;99.90;;;;;;5118675;28;19927;-78
2023/01/04 07:38:58;;;;;;;;;;;11.10;99.90;;;;;;5118400;28;19967;-84
2023/01/04 07:41:23;;;;;;;;;;;11.20;99.90;;;;;;5118405;28;19967;-76
2023/01/04 07:43:49;;;;;;;;;;;11.10;99.90;;;;;;5118863;28;19911;-78
2023/01/04 07:46:15;;;;;;;;;;;11.20;99.90;;;;;;5118216;28;19900;-79
2023/01/04 07:48:40;;;;;;;;;;;11.20;99.90;;;;;;5119103;28;19901;-78
2023/01/04 07:51:06;;;;;;;;;;;11.20;99.90;;;;;;5118456;28;19959;-79
2023/01/04 07:53:32;;;;;;;;;;;11.10;99.90;;;;;;5118500;28;19976;-78
2023/01/04 07:55:58;;;;;;;;;;;11.10;99.90;;;;;;5118203;28;19907;-78
2023/01/04 07:58:24;;;;;;;;;;;11.10;99.90;;;;;;5107690;28;19913;-77
2023/01/04 08:00:50;;;;;;;;;;;11.10;99.90;;;;;;5102288;28;19949;-77
2023/01/04 08:03:15;;;;;;;;;;;11.10;99.90;;;;;;5103366;28;19972;-78
2023/01/04 08:05:41;;;;;;;;;;;11.00;99.90;;;;;;5102986;28;20515;-78
2023/01/04 08:08:07;;;;;;;;;;;11.00;99.90;;;;;;5098829;28;20003;-78
2023/01/04 08:10:32;;;;;;;;;;;11.00;99.90;;;;;;5098993;28;19908;-78
2023/01/04 08:12:58;;;;;;;;;;;11.10;99.90;;;;;;5099834;28;19908;-77
2023/01/04 08:15:25;;;;;;;;;;;11.00;99.90;;;;;;5080600;28;20007;-78
2023/01/04 08:17:51;;;;;;;;;;;11.00;99.90;;;;;;5097881;28;19924;-77
2023/01/04 08:20:17;;;;;;;;;;;11.10;99.90;;;;;;5098297;28;20011;-77
2023/01/04 08:22:42;;;;;;;;;;;11.10;99.90;;;;;;5097547;28;20306;-77
2023/01/04 08:25:08;;;;;;;;;;;11.10;99.90;;;;;;5097248;28;19908;-78
2023/01/04 08:27:34;;;;;;;;;;;11.10;99.90;;;;;;5097432;28;20246;-76
2023/01/04 08:29:59;;;;;;;;;;;11.10;99.90;;;;;;5097171;28;20387;-78
2023/01/04 08:32:25;;;;;;;;;;;11.10;99.90;;;;;;5113370;28;20387;-78
2023/01/04 08:34:53;;;;;;;;;;;11.10;99.90;;;;;;5117577;28;19912;-79
2023/01/04 08:37:18;;;;;;;;;;;11.10;99.90;;;;;;5116465;28;19915;-78
2023/01/04 08:39:44;;;;;;;;;;;11.20;99.90;;;;;;5118124;28;19908;-79
2023/01/04 08:42:10;;;;;;;;;;;11.20;99.90;;;;;;5116196;28;20334;-79
2023/01/04 08:44:36;;;;;;;;;;;11.20;99.90;;;;;;5116725;28;19914;-78
2023/01/04 08:47:01;;;;;;;;;;;11.10;99.90;;;;;;5116696;28;19968;-78
2023/01/04 08:49:27;;;;;;;;;;;11.10;99.90;;;;;;5115658;28;19908;-77
2023/01/04 08:51:53;;;;;;;;;;;11.10;99.90;;;;;;5116335;28;19998;-78
2023/01/04 08:54:18;;;;;;;;;;;11.00;99.90;;;;;;5115460;28;20269;-79
2023/01/04 08:56:44;;;;;;;;;;;11.00;99.90;;;;;;5115459;28;19912;-78
2023/01/04 08:59:11;;;;;;;;;;;11.00;99.90;;;;;;5115358;28;19911;-78
2023/01/04 09:01:38;;;;;;;;;;;11.00;99.90;;;;;;5115905;28;20233;-78
2023/01/04 09:04:03;;;;;;;;;;;11.00;99.90;;;;;;5115893;28;19908;-78
2023/01/04 09:06:29;;;;;;;;;;;11.10;99.90;;;;;;5114842;28;19991;-78
2023/01/04 09:08:55;;;;;;;;;;;11.10;99.90;;;;;;5115454;28;20367;-83
2023/01/04 09:11:21;;;;;;;;;;;11.10;99.90;;;;;;5114759;28;20026;-79
2023/01/04 09:13:47;;;;;;;;;;;11.10;99.90;;;;;;5104810;28;20312;-78
2023/01/04 09:16:18;;;;;;;;;;;11.10;99.90;;;;;;5103683;28;19916;-79
2023/01/04 09:18:44;;;;;;;;;;;11.10;99.90;;;;;;5093581;28;19964;-79
2023/01/04 09:21:11;;;;;;;;;;;11.10;99.90;;;;;;5114357;28;19908;-80
2023/01/04 09:23:37;;;;;;;;;;;11.10;99.90;;;;;;5114635;28;20242;-78
2023/01/04 09:26:06;;;;;;;;;;;11.10;99.90;;;;;;5114737;28;19908;-79
2023/01/04 09:28:31;;;;;;;;;;;11.10;99.90;;;;;;5114275;28;20373;-79
2023/01/04 09:30:57;;;;;;;;;;;11.10;99.90;;;;;;5113961;28;19914;-80
2023/01/04 09:33:22;;;;;;;;;;;11.10;99.90;;;;;;5103287;28;19951;-79
2023/01/04 09:35:48;;;;;;;;;;;11.00;99.90;;;;;;5103241;28;19919;-78
2023/01/04 09:38:14;;;;;;;;;;;11.10;99.90;;;;;;5109888;28;20285;-79
2023/01/04 09:40:52;;;;;;;;;;;11.10;99.90;;;;;;5113370;28;19908;-79
2023/01/04 09:43:20;;;;;;;;;;;11.10;99.90;;;;;;5108919;28;20031;-80
2023/01/04 09:45:47;;;;;;;;;;;11.10;99.90;;;;;;5103724;28;19995;-79
2023/01/04 09:48:14;;;;;;;;;;;11.10;99.90;;;;;;5102878;28;19914;-79
2023/01/04 09:50:39;;;;;;;;;;;11.10;99.90;;;;;;5102101;28;19936;-80
2023/01/04 09:53:26;;;;;;;;;;;11.10;99.90;;;;;;5100287;28;19907;-80
2023/01/04 09:55:54;;;;;;;;;;;11.10;99.90;;;;;;5083186;28;19951;-79
2023/01/04 09:58:26;;;;;;;;;;;11.00;99.90;;;;;;5101347;28;19916;-80
2023/01/04 10:00:59;;;;;;;;;;;11.00;99.90;;;;;;5102419;28;20426;-78
2023/01/04 10:03:28;;;;;;;;;;;11.10;99.90;;;;;;5112165;28;20365;-79
2023/01/04 10:05:55;;;;;;;;;;;11.20;99.90;;;;;;5115729;28;19978;-80
2023/01/04 10:08:20;;;;;;;;;;;11.20;99.90;;;;;;5114722;28;19908;-80
2023/01/04 10:10:58;;;;;;;;;;;11.30;99.90;;;;;;5112662;28;20388;-79
2023/01/04 10:13:33;;;;;;;;;;;11.30;99.90;;;;;;5101685;28;19912;-79
2023/01/04 10:16:25;;;;;;;;;;;11.40;99.90;;;;;;5094237;28;19951;-79
2023/01/04 10:19:00;;;;;;;;;;;11.40;99.90;;;;;;5090597;28;20341;-80
2023/01/04 10:21:25;;;;;;;;;;;11.30;99.90;;;;;;5093722;28;20352;-79
2023/01/04 10:24:01;;;;;;;;;;;11.30;99.90;;;;;;5093974;28;19908;-79
2023/01/04 10:26:38;;;;;;;;;;;11.30;99.90;;;;;;5098852;28;20007;-78
2023/01/04 10:29:17;;;;;;;;;;;11.30;99.90;;;;;;5094263;28;19915;-79
2023/01/04 10:31:53;;;;;;;;;;;11.40;99.90;;;;;;5094245;28;20442;-79
2023/01/04 10:34:24;;;;;;;;;;;11.40;99.90;;;;;;5093317;28;20256;-79
2023/01/04 10:36:52;;;;;;;;;;;11.40;99.90;;;;;;5093637;28;20019;-79
2023/01/04 10:39:20;;;;;;;;;;;11.50;99.90;;;;;;5093846;28;19908;-79
2023/01/04 10:41:54;;;;;;;;;;;11.50;99.90;;;;;;5094029;28;19923;-79
2023/01/04 10:44:38;;;;;;;;;;;11.60;99.90;;;;;;5093149;28;19908;-80
2023/01/04 10:47:10;;;;;;;;;;;11.60;99.90;;;;;;5093861;28;19908;-79
2023/01/04 10:49:45;;;;;;;;;;;11.60;99.90;;;;;;5093720;28;19908;-79
2023/01/04 10:52:10;;;;;;;;;;;11.60;99.90;;;;;;5075986;28;20323;-79
2023/01/04 10:54:36;;;;;;;;;;;11.60;99.90;;;;;;5093432;28;19973;-80
2023/01/04 10:57:14;;;;;;;;;;;11.70;99.90;;;;;;5093425;28;20317;-79
2023/01/04 10:59:46;;;;;;;;;;;11.70;99.90;;;;;;5093127;28;19920;-79
2023/01/04 11:02:18;;;;;;;;;;;11.70;99.90;;;;;;5092556;28;19912;-82
2023/01/04 11:04:46;;;;;;;;;;;11.70;99.90;;;;;;5093675;28;19908;-80
2023/01/04 11:07:15;;;;;;;;;;;11.80;99.90;;;;;;5092088;28;19919;-79
2023/01/04 11:09:47;;;;;;;;;;;11.80;99.90;;;;;;5092567;28;19908;-81
2023/01/04 11:12:14;;;;;;;;;;;11.90;99.90;;;;;;5074393;28;20006;-84
2023/01/04 11:14:40;;;;;;;;;;;11.90;99.90;;;;;;5074646;28;19912;-81
2023/01/04 11:17:07;;;;;;;;;;;11.90;99.90;;;;;;5092148;28;19957;-79
2023/01/04 11:19:33;;;;;;;;;;;11.90;99.90;;;;;;5092204;28;20009;-80
2023/01/04 11:22:05;;;;;;;;;;;11.90;99.90;;;;;;5074118;28;19908;-80
2023/01/04 11:24:31;;;;;;;;;;;11.90;99.90;;;;;;5091835;28;19915;-81
2023/01/04 11:26:58;;;;;;;;;;;11.90;99.90;;;;;;5092229;28;20319;-78
2023/01/04 11:29:28;;;;;;;;;;;11.90;99.90;;;;;;5091970;28;19908;-80
2023/01/04 11:32:01;;;;;;;;;;;11.90;99.90;;;;;;5092562;28;19912;-80
2023/01/04 11:34:43;;;;;;;;;;;11.90;99.90;;;;;;5073860;28;19993;-80
2023/01/04 11:37:36;;;;;;;;;;;11.90;99.90;;;;;;5091609;28;20340;-80
2023/01/04 11:40:17;;;;;;;;;;;12.00;99.90;;;;;;5091706;28;20377;-79
2023/01/04 11:42:46;;;;;;;;;;;12.00;99.90;;;;;;5092375;28;19912;-80
2023/01/04 11:45:20;;;;;;;;;;;12.00;99.90;;;;;;5095196;28;19924;-80
2023/01/04 11:47:49;;;;;;;;;;;12.00;99.90;;;;;;5095337;28;20333;-79
2023/01/04 11:50:33;;;;;;;;;;;12.00;99.90;;;;;;5095728;28;19908;-79
2023/01/04 11:52:59;;;;;;;;;;;12.10;99.90;;;;;;5095431;28;20273;-80
2023/01/04 11:55:26;;;;;;;;;;;12.10;99.90;;;;;;5094317;28;19912;-80
2023/01/04 11:58:04;;;;;;;;;;;12.10;99.90;;;;;;5095129;28;19916;-81
2023/01/04 12:00:30;;;;;;;;;;;12.10;99.90;;;;;;5094911;28;20379;-80
2023/01/04 12:03:09;;;;;;;;;;;12.10;99.90;;;;;;5095453;28;19934;-80
2023/01/04 12:05:35;;;;;;;;;;;12.10;99.90;;;;;;5094435;28;19908;-80
2023/01/04 12:08:00;;;;;;;;;;;12.00;99.90;;;;;;5095295;28;20217;-80
2023/01/04 12:10:26;;;;;;;;;;;12.10;99.90;;;;;;5094366;28;19912;-80
2023/01/04 12:12:56;;;;;;;;;;;12.10;99.90;;;;;;5094115;28;19932;-80
2023/01/04 12:15:35;;;;;;;;;;;12.10;99.90;;;;;;5093409;28;19916;-80
2023/01/04 12:18:04;;;;;;;;;;;12.10;99.90;;;;;;5094473;28;20260;-80
2023/01/04 12:20:29;;;;;;;;;;;12.10;99.90;;;;;;5094288;28;19913;-80
2023/01/04 12:22:55;;;;;;;;;;;12.10;99.90;;;;;;5095310;28;19950;-80
2023/01/04 12:25:26;;;;;;;;;;;12.00;99.90;;;;;;5094807;28;20352;-84
2023/01/04 12:27:54;;;;;;;;;;;12.00;99.90;;;;;;5094865;28;19912;-81
2023/01/04 12:30:33;;;;;;;;;;;11.90;99.90;;;;;;5095085;28;20040;-85
2023/01/04 12:32:59;;;;;;;;;;;11.80;99.90;;;;;;5095220;28;19963;-80
2023/01/04 12:35:43;;;;;;;;;;;11.70;99.90;;;;;;5094374;28;20426;-80
2023/01/04 12:38:09;;;;;;;;;;;11.70;99.90;;;;;;5096294;28;19912;-80
2023/01/04 12:40:44;;;;;;;;;;;11.80;99.90;;;;;;5094938;28;19919;-81
2023/01/04 12:43:15;;;;;;;;;;;11.90;99.90;;;;;;5095319;28;19909;-80
2023/01/04 12:49:02;;;;;;;;;;;11.90;99.90;;;;;;5094623;28;20058;-81
2023/01/04 12:51:19;;;;;;;;;;;12.00;99.90;;;;;;5095451;28;19999;-80
2023/01/04 12:53:55;;;;;;;;;;;12.00;99.90;;;;;;5094444;28;19935;-81
2023/01/04 12:56:21;;;;;;;;;;;12.00;99.90;;;;;;5093644;28;19919;-83
2023/01/04 12:59:06;;;;;;;;;;;12.00;99.90;;;;;;5094554;28;20302;-81
2023/01/04 13:01:33;;;;;;;;;;;12.00;99.90;;;;;;5094412;28;19935;-81
2023/01/04 13:04:03;;;;;;;;;;;12.00;99.90;;;;;;5094442;28;20037;-80
2023/01/04 13:06:31;;;;;;;;;;;12.00;99.90;;;;;;5094102;28;19916;-81
2023/01/04 13:08:56;;;;;;;;;;;12.00;99.90;;;;;;5094678;28;19912;-81
2023/01/04 13:11:31;;;;;;;;;;;12.00;99.90;;;;;;5075829;28;19934;-85
2023/01/04 13:14:01;;;;;;;;;;;12.10;99.90;;;;;;5094063;28;19908;-80
2023/01/04 13:16:49;;;;;;;;;;;12.20;99.90;;;;;;5093268;28;21398;-81
2023/01/04 13:19:22;;;;;;;;;;;12.30;99.90;;;;;;5104205;28;20273;-80
2023/01/04 13:21:49;;;;;;;;;;;12.30;99.90;;;;;;5103555;28;19912;-80
2023/01/04 13:24:33;;;;;;;;;;;12.40;99.90;;;;;;5087127;28;19953;-81
2023/01/04 13:27:11;;;;;;;;;;;12.40;99.90;;;;;;5104131;28;19919;-80
2023/01/04 13:29:39;;;;;;;;;;;12.40;99.90;;;;;;5102651;28;19943;-80
2023/01/04 13:32:09;;;;;;;;;;;12.40;99.90;;;;;;5103593;28;19926;-80
2023/01/04 13:34:44;;;;;;;;;;;12.30;99.90;;;;;;5106190;28;19916;-80
2023/01/04 13:37:09;;;;;;;;;;;12.30;99.90;;;;;;5104669;28;20010;-80
2023/01/04 13:39:40;;;;;;;;;;;12.20;99.90;;;;;;5096445;28;19948;-80
2023/01/04 13:42:10;;;;;;;;;;;12.10;99.90;;;;;;5104668;28;19958;-79
2023/01/04 13:44:44;;;;;;;;;;;12.00;99.90;;;;;;5125585;28;19915;-80
2023/01/04 13:47:10;;;;;;;;;;;12.00;99.90;;;;;;5103385;28;20357;-79
2023/01/04 13:49:37;;;;;;;;;;;11.90;99.90;;;;;;5093292;28;19962;-79
2023/01/04 13:52:21;;;;;;;;;;;11.90;99.90;;;;;;5093578;28;19937;-79
2023/01/04 13:54:47;;;;;;;;;;;11.90;99.90;;;;;;5093024;28;19916;-80
2023/01/04 13:57:19;;;;;;;;;;;11.90;99.90;;;;;;5113878;28;19912;-78
2023/01/04 13:59:48;;;;;;;;;;;11.90;99.90;;;;;;5104811;28;19908;-79
2023/01/04 14:02:18;;;;;;;;;;;11.90;99.90;;;;;;5093468;28;20324;-80
2023/01/04 14:04:44;;;;;;;;;;;11.90;99.90;;;;;;5095456;28;19961;-81
2023/01/04 14:07:10;;;;;;;;;;;11.90;99.90;;;;;;5101593;28;20006;-81
2023/01/04 14:09:43;;;;;;;;;;;11.90;99.90;;;;;;5092863;28;20384;-80
2023/01/04 14:12:13;;;;;;;;;;;11.90;99.90;;;;;;5099171;28;19920;-81
2023/01/04 14:14:59;;;;;;;;;;;11.80;99.90;;;;;;5094457;28;19942;-82
2023/01/04 14:17:46;;;;;;;;;;;11.80;99.90;;;;;;5102820;28;19908;-80
2023/01/04 14:20:13;;;;;;;;;;;11.70;99.90;;;;;;5107069;28;19926;-80
2023/01/04 14:22:44;;;;;;;;;;;11.70;99.90;;;;;;5124319;28;19931;-87
2023/01/04 14:25:28;;;;;;;;;;;11.70;99.90;;;;;;5127131;28;19900;-82
2023/01/04 14:28:13;;;;;;;;;;;11.60;99.90;;;;;;5116297;28;19928;-87
2023/01/04 14:30:39;;;;;;;;;;;11.60;99.90;;;;;;5115596;28;19967;-82
2023/01/04 14:33:28;;;;;;;;;;;11.60;99.90;;;;;;5115547;28;19900;-81
2023/01/04 14:36:21;;;;;;;;;;;11.60;99.90;;;;;;5104275;28;20010;-82
2023/01/04 14:38:51;;;;;;;;;;;11.70;99.90;;;;;;5113764;28;20426;-84
2023/01/04 14:41:16;;;;;;;;;;;11.70;99.90;;;;;;5116728;28;19961;-81
2023/01/04 14:43:46;;;;;;;;;;;11.70;99.90;;;;;;5111906;28;19964;-82
2023/01/04 14:46:12;;;;;;;;;;;11.70;99.90;;;;;;5111845;28;19912;-81
2023/01/04 14:48:38;;;;;;;;;;;11.70;99.90;;;;;;5111135;28;19915;-82
2023/01/04 14:51:04;;;;;;;;;;;11.70;99.90;;;;;;5111490;28;19922;-81
2023/01/04 14:53:29;;;;;;;;;;;11.70;99.90;;;;;;5092631;28;20360;-86
2023/01/04 14:55:55;;;;;;;;;;;11.70;99.90;;;;;;5111415;28;19916;-81
2023/01/04 14:58:21;;;;;;;;;;;11.70;99.90;;;;;;5111480;28;19908;-81
2023/01/04 15:00:46;;;;;;;;;;;11.80;99.90;;;;;;5110892;28;19965;-80
2023/01/04 15:03:12;;;;;;;;;;;11.80;99.90;;;;;;5111383;28;19911;-82
2023/01/04 15:05:38;;;;;;;;;;;11.70;99.90;;;;;;5110884;28;20057;-82
2023/01/04 15:08:03;;;;;;;;;;;11.70;99.90;;;;;;5111436;28;19907;-81
2023/01/04 15:10:29;;;;;;;;;;;11.80;99.90;;;;;;5111478;28;19939;-86
2023/01/04 15:12:56;;;;;;;;;;;11.80;99.90;;;;;;5111006;28;19920;-81
2023/01/04 15:15:22;;;;;;;;;;;11.70;99.90;;;;;;5111117;28;19920;-82
2023/01/04 15:17:47;;;;;;;;;;;11.70;99.90;;;;;;5112024;28;19918;-81